createdAt,value
2018-02-21T00:01:59.492Z,84.03
2018-02-21T00:04:27.028Z,91.95
2018-02-21T00:06:54.648Z,86.70
2018-02-21T00:09:22.734Z,81.35
2018-02-21T00:11:54.918Z,87.90
2018-02-21T00:14:22.915Z,88.80
2018-02-21T00:16:51.718Z,93.30
2018-02-21T00:19:22.650Z,97.43
2018-02-21T00:21:59.256Z,103.10
2018-02-21T00:24:30.898Z,93.57
2018-02-21T00:27:01.205Z,88.30
2018-02-21T00:29:31.811Z,90.50
2018-02-21T00:32:02.183Z,96.05
2018-02-21T00:34:29.768Z,94.03
2018-02-21T00:37:05.138Z,83.97
2018-02-21T00:39:34.205Z,88.75
2018-02-21T00:42:04.290Z,82.30
2018-02-21T00:44:32.371Z,84.07
2018-02-21T00:47:00.365Z,95.12
2018-02-21T00:49:32.219Z,93.65
2018-02-21T00:52:02.135Z,91.72
2018-02-21T00:54:39.025Z,91.00
2018-02-21T00:57:07.034Z,103.85
2018-02-21T00:59:36.120Z,97.53
2018-02-21T01:02:05.262Z,89.70
2018-02-21T01:04:34.153Z,92.37
2018-02-21T01:07:04.784Z,93.95
2018-02-21T01:09:33.362Z,102.00
2018-02-21T01:12:03.433Z,91.30
2018-02-21T01:14:31.163Z,100.20
2018-02-21T01:17:00.017Z,92.53
2018-02-21T01:22:08.270Z,109.53
2018-02-21T01:24:38.111Z,94.35
2018-02-21T01:27:06.316Z,92.28
2018-02-21T01:29:34.895Z,96.47
2018-02-21T01:32:03.999Z,106.65
2018-02-21T01:34:34.016Z,96.47
2018-02-21T01:37:03.326Z,113.70
2018-02-21T01:39:34.778Z,93.62
2018-02-21T01:42:03.913Z,106.20
2018-02-21T01:44:34.703Z,84.20
2018-02-21T01:47:03.008Z,104.87
2018-02-21T01:49:31.392Z,94.90
2018-02-21T01:52:01.065Z,106.85
2018-02-21T01:57:12.061Z,103.00
2018-02-21T01:59:41.142Z,105.32
2018-02-21T02:02:08.800Z,100.72
2018-02-21T02:04:40.669Z,100.50
2018-02-21T02:07:08.944Z,98.95
2018-02-21T02:09:36.544Z,100.97
2018-02-21T02:12:05.648Z,111.35
2018-02-21T02:14:36.630Z,109.03
2018-02-21T02:17:08.056Z,108.05
2018-02-21T02:19:38.407Z,110.28
2018-02-21T02:22:09.830Z,100.00
2018-02-21T02:24:43.911Z,100.80
2018-02-21T02:27:18.959Z,98.70
2018-02-21T02:29:52.835Z,98.40
2018-02-21T02:32:23.260Z,113.68
2018-02-21T02:34:51.553Z,114.82
2018-02-21T02:37:23.490Z,101.95
2018-02-21T02:40:01.598Z,108.07
2018-02-21T02:45:05.673Z,91.12
2018-02-21T02:47:34.793Z,111.12
2018-02-21T02:50:03.665Z,116.97
2018-02-21T02:52:32.591Z,100.75
2018-02-21T02:57:41.259Z,96.40
2018-02-21T03:00:13.668Z,109.53
2018-02-21T03:02:41.468Z,108.05
2018-02-21T03:05:09.898Z,95.53
2018-02-21T03:10:11.647Z,115.88
2018-02-21T03:12:41.673Z,112.07
2018-02-21T03:15:11.860Z,104.70
2018-02-21T03:17:50.940Z,107.93
2018-02-21T03:22:54.104Z,99.15
2018-02-21T03:25:23.983Z,108.97
2018-02-21T03:27:53.609Z,111.97
2018-02-21T03:30:23.021Z,113.97
2018-02-21T03:32:56.726Z,114.15
2018-02-21T03:35:27.950Z,121.05
2018-02-21T03:37:55.661Z,109.90
2018-02-21T03:40:27.826Z,118.15
2018-02-21T03:42:57.025Z,116.85
2018-02-21T03:45:29.318Z,109.68
2018-02-21T03:47:58.417Z,105.45
2018-02-21T03:50:28.829Z,115.10
2018-02-21T03:52:58.915Z,122.30
2018-02-21T03:55:32.807Z,119.18
2018-02-21T03:58:04.624Z,122.35
2018-02-21T04:00:34.319Z,117.68
2018-02-21T04:03:04.190Z,128.77
2018-02-21T04:05:32.876Z,113.12
2018-02-21T04:08:00.877Z,130.57
2018-02-21T04:10:35.276Z,116.35
2018-02-21T04:13:07.300Z,111.28
2018-02-21T04:15:34.842Z,119.80
2018-02-21T04:18:03.543Z,119.25
2018-02-21T04:20:35.205Z,110.45
2018-02-21T04:23:04.371Z,119.60
2018-02-21T04:25:32.002Z,113.25
2018-02-21T04:28:00.474Z,140.23
2018-02-21T04:30:32.852Z,121.05
2018-02-21T04:33:03.150Z,120.28
2018-02-21T04:35:35.271Z,125.85
2018-02-21T04:38:02.826Z,120.00
2018-02-21T04:40:37.304Z,132.98
2018-02-21T04:43:06.519Z,132.00
2018-02-21T04:45:34.064Z,113.45
2018-02-21T04:48:02.876Z,113.45
2018-02-21T04:50:32.277Z,118.15
2018-02-21T04:53:01.590Z,126.20
2018-02-21T04:55:35.002Z,111.82
2018-02-21T04:58:06.971Z,122.43
2018-02-21T05:00:36.140Z,121.60
2018-02-21T05:03:05.371Z,122.70
2018-02-21T05:05:33.027Z,117.05
2018-02-21T05:08:04.417Z,104.55
2018-02-21T05:10:32.631Z,112.28
2018-02-21T05:13:01.122Z,107.15
2018-02-21T05:15:29.515Z,109.35
2018-02-21T05:17:57.030Z,104.55
2018-02-21T05:20:25.335Z,109.65
2018-02-21T05:22:52.874Z,118.85
2018-02-21T05:25:20.503Z,105.18
2018-02-21T05:27:51.112Z,109.93
2018-02-21T05:30:18.704Z,106.22
2018-02-21T05:32:47.069Z,103.22
2018-02-21T05:35:20.683Z,126.28
2018-02-21T05:37:49.312Z,113.10
2018-02-21T05:40:17.384Z,120.78
2018-02-21T05:42:48.654Z,131.52
2018-02-21T05:45:16.219Z,122.35
2018-02-21T05:47:43.740Z,110.15
2018-02-21T05:50:13.232Z,120.87
2018-02-21T05:52:47.348Z,113.68
2018-02-21T05:55:15.402Z,124.55
2018-02-21T05:57:43.776Z,117.18
2018-02-21T06:00:12.128Z,129.70
2018-02-21T06:02:39.716Z,116.80
2018-02-21T06:05:07.294Z,121.18
2018-02-21T06:07:36.493Z,112.30
2018-02-21T06:10:04.815Z,119.22
2018-02-21T06:12:32.407Z,114.28
2018-02-21T06:15:00.742Z,117.95
2018-02-21T06:17:29.055Z,109.12
2018-02-21T06:19:57.079Z,108.32
2018-02-21T06:22:25.402Z,108.22
2018-02-21T06:24:53.732Z,107.40
2018-02-21T06:27:22.795Z,128.87
2018-02-21T06:29:53.030Z,128.38
2018-02-21T06:32:23.136Z,116.75
2018-02-21T06:34:51.505Z,121.97
2018-02-21T06:37:19.781Z,140.98
2018-02-21T06:39:48.165Z,118.18
2018-02-21T06:42:17.977Z,123.90
2018-02-21T06:44:46.354Z,123.47
2018-02-21T06:47:14.715Z,113.00
2018-02-21T06:49:44.034Z,125.20
2018-02-21T06:52:13.043Z,129.77
2018-02-21T06:54:40.638Z,126.00
2018-02-21T06:57:08.365Z,111.68
2018-02-21T06:59:35.926Z,106.70
2018-02-21T07:02:04.429Z,130.10
2018-02-21T07:04:34.162Z,150.05
2018-02-21T07:07:01.670Z,136.65
2018-02-21T07:09:30.191Z,118.37
2018-02-21T07:11:57.751Z,111.20
2018-02-21T07:14:27.106Z,121.65
2018-02-21T07:16:54.663Z,122.93
2018-02-21T07:19:22.257Z,120.37
2018-02-21T07:21:51.441Z,130.60
2018-02-21T07:24:19.119Z,121.62
2018-02-21T07:26:47.432Z,107.90
2018-02-21T07:29:15.196Z,117.72
2018-02-21T07:31:42.731Z,115.60
2018-02-21T07:34:10.982Z,127.05
2018-02-21T07:36:40.988Z,112.88
2018-02-21T07:39:09.338Z,111.35
2018-02-21T07:41:38.496Z,151.82
2018-02-21T07:44:07.163Z,135.15
2018-02-21T07:46:34.668Z,125.32
2018-02-21T07:49:03.061Z,131.90
2018-02-21T07:51:31.277Z,130.30
2018-02-21T07:53:59.668Z,124.15
2018-02-21T07:56:28.222Z,119.18
2018-02-21T07:58:55.722Z,120.45
2018-02-21T08:01:23.293Z,106.60
2018-02-21T08:03:53.231Z,124.47
2018-02-21T08:06:20.787Z,112.97
2018-02-21T08:08:48.370Z,118.53
2018-02-21T08:11:17.193Z,116.32
2018-02-21T08:13:44.781Z,109.63
2018-02-21T08:16:12.334Z,108.72
2018-02-21T08:18:39.867Z,120.18
2018-02-21T08:21:07.461Z,115.45
2018-02-21T08:23:36.470Z,103.78
2018-02-21T08:26:04.783Z,100.68
2018-02-21T08:28:33.543Z,108.87
2018-02-21T08:31:02.468Z,105.90
2018-02-21T08:33:30.607Z,110.00
2018-02-21T08:35:59.722Z,109.65
2018-02-21T08:38:27.270Z,95.62
2018-02-21T08:40:54.778Z,99.80
2018-02-21T08:43:23.835Z,120.40
2018-02-21T08:45:52.776Z,99.70
2018-02-21T08:48:21.919Z,101.47
2018-02-21T08:50:50.063Z,109.80
2018-02-21T08:53:19.249Z,103.62
2018-02-21T08:55:47.622Z,89.35
2018-02-21T08:58:15.924Z,86.05
2018-02-21T09:00:43.502Z,89.45
2018-02-21T09:03:11.145Z,91.87
2018-02-21T09:05:38.671Z,86.45
2018-02-21T09:08:06.217Z,84.25
2018-02-21T09:10:34.614Z,84.43
2018-02-21T09:13:02.952Z,90.55
2018-02-21T09:15:30.479Z,81.10
2018-02-21T09:17:59.734Z,78.95
2018-02-21T09:20:27.350Z,100.32
2018-02-21T09:22:55.625Z,80.68
2018-02-21T09:25:23.752Z,62.65
2018-02-21T09:27:51.271Z,73.70
2018-02-21T09:30:18.793Z,67.35
2018-02-21T09:32:46.303Z,71.60
2018-02-21T09:35:13.855Z,60.35
2018-02-21T09:37:41.386Z,71.47
2018-02-21T09:40:09.312Z,57.33
2018-02-21T09:42:38.196Z,65.40
2018-02-21T09:45:05.649Z,66.25
2018-02-21T09:47:33.612Z,60.72
2018-02-21T09:50:01.140Z,65.00
2018-02-21T09:52:28.637Z,54.03
2018-02-21T09:54:56.181Z,52.20
2018-02-21T09:57:23.655Z,49.55
2018-02-21T09:59:52.993Z,45.17
2018-02-21T10:02:21.196Z,48.22
2018-02-21T10:04:48.877Z,51.58
2018-02-21T10:07:17.322Z,46.72
2018-02-21T10:09:45.649Z,46.42
2018-02-21T10:12:13.162Z,44.45
2018-02-21T10:14:40.706Z,53.97
2018-02-21T10:17:08.257Z,48.05
2018-02-21T10:19:39.605Z,53.72
2018-02-21T10:22:07.163Z,46.65
2018-02-21T10:24:34.699Z,47.75
2018-02-21T10:27:04.980Z,48.87
2018-02-21T10:29:32.569Z,53.67
2018-02-21T10:32:00.015Z,51.20
2018-02-21T10:34:27.867Z,49.92
2018-02-21T10:36:56.104Z,57.67
2018-02-21T10:39:23.829Z,46.63
2018-02-21T10:41:51.755Z,46.50
2018-02-21T10:44:19.637Z,44.65
2018-02-21T10:46:49.327Z,53.65
2018-02-21T10:49:17.766Z,53.58
2018-02-21T10:51:46.126Z,43.67
2018-02-21T10:54:14.717Z,57.50
2018-02-21T10:56:42.880Z,48.35
2018-02-21T10:59:11.484Z,44.63
2018-02-21T11:01:39.404Z,45.65
2018-02-21T11:04:07.249Z,46.53
2018-02-21T11:06:34.948Z,49.78
2018-02-21T11:09:03.165Z,56.03
2018-02-21T11:11:31.302Z,59.53
2018-02-21T11:13:59.912Z,55.10
2018-02-21T11:16:28.561Z,50.38
2018-02-21T11:18:57.199Z,53.53
2018-02-21T11:21:25.044Z,46.88
2018-02-21T11:23:54.025Z,57.55
2018-02-21T11:26:21.808Z,63.65
2018-02-21T11:28:49.981Z,56.30
2018-02-21T11:31:18.209Z,58.80
2018-02-21T11:33:46.170Z,54.15
2018-02-21T11:36:15.654Z,61.28
2018-02-21T11:38:44.394Z,46.67
2018-02-21T11:41:12.474Z,57.80
2018-02-21T11:43:40.413Z,60.28
2018-02-21T11:46:08.788Z,58.92
2018-02-21T11:48:37.819Z,47.40
2018-02-21T11:51:06.623Z,54.08
2018-02-21T11:53:34.898Z,57.88
2018-02-21T11:56:06.560Z,57.40
2018-02-21T11:58:35.072Z,59.75
2018-02-21T12:01:02.752Z,59.90
2018-02-21T12:03:30.521Z,51.50
2018-02-21T12:05:58.136Z,55.67
2018-02-21T12:08:27.025Z,49.88
2018-02-21T12:10:55.571Z,52.22
2018-02-21T12:13:25.346Z,53.00
2018-02-21T12:15:53.823Z,64.18
2018-02-21T12:18:21.579Z,49.60
2018-02-21T12:20:49.970Z,51.45
2018-02-21T12:23:18.018Z,54.75
2018-02-21T12:25:45.820Z,49.13
2018-02-21T12:28:14.028Z,64.87
2018-02-21T12:30:41.936Z,50.90
2018-02-21T12:33:10.479Z,56.42
2018-02-21T12:35:38.257Z,50.03
2018-02-21T12:38:06.163Z,59.40
2018-02-21T12:43:36.614Z,58.75
2018-02-21T12:46:04.849Z,58.83
2018-02-21T12:48:33.798Z,62.60
2018-02-21T12:51:01.546Z,61.83
2018-02-21T12:53:29.438Z,59.42
2018-02-21T12:55:57.131Z,58.97
2018-02-21T12:58:26.533Z,52.88
2018-02-21T13:00:54.517Z,55.25
2018-02-21T13:03:23.321Z,50.30
2018-02-21T13:05:52.045Z,54.45
2018-02-21T13:08:21.422Z,48.15
2018-02-21T13:10:50.115Z,52.67
2018-02-21T13:13:19.059Z,55.12
2018-02-21T13:15:47.657Z,55.70
2018-02-21T13:18:15.608Z,59.47
2018-02-21T13:20:43.260Z,51.28
2018-02-21T13:23:10.969Z,61.25
2018-02-21T13:25:38.588Z,56.13
2018-02-21T13:28:07.805Z,65.78
2018-02-21T13:30:36.275Z,52.62
2018-02-21T13:33:03.974Z,56.60
2018-02-21T13:35:32.884Z,55.38
2018-02-21T13:38:00.708Z,45.92
2018-02-21T13:40:29.244Z,49.15
2018-02-21T13:42:57.216Z,51.65
2018-02-21T13:45:25.315Z,50.55
2018-02-21T13:47:54.098Z,49.30
2018-02-21T13:50:22.819Z,55.12
2018-02-21T13:52:51.825Z,53.65
2018-02-21T13:55:19.915Z,48.30
2018-02-21T13:57:47.770Z,57.30
2018-02-21T14:00:15.490Z,46.58
2018-02-21T14:02:44.118Z,51.83
2018-02-21T14:05:11.841Z,51.22
2018-02-21T14:07:39.615Z,52.10
2018-02-21T14:10:08.154Z,53.42
2018-02-21T14:12:36.865Z,56.45
2018-02-21T14:15:05.367Z,60.63
2018-02-21T14:17:34.291Z,48.95
2018-02-21T14:20:02.229Z,59.05
2018-02-21T14:22:29.713Z,64.43
2018-02-21T14:24:57.177Z,60.55
2018-02-21T14:27:24.647Z,61.03
2018-02-21T14:29:52.090Z,56.10
2018-02-21T14:32:19.548Z,64.03
2018-02-21T14:34:46.997Z,65.22
2018-02-21T14:37:14.451Z,74.93
2018-02-21T14:39:41.916Z,76.78
2018-02-21T14:42:09.372Z,78.68
2018-02-21T14:44:36.828Z,77.30
2018-02-21T14:47:04.285Z,64.97
2018-02-21T14:49:31.738Z,70.03
2018-02-21T14:51:59.189Z,67.37
2018-02-21T14:54:26.648Z,60.75
2018-02-21T14:56:54.108Z,72.65
2018-02-21T14:59:21.553Z,63.92
2018-02-21T15:01:49.006Z,68.65
2018-02-21T15:04:17.226Z,76.43
2018-02-21T15:06:44.700Z,63.92
2018-02-21T15:09:12.141Z,66.57
2018-02-21T15:11:40.007Z,64.12
2018-02-21T15:14:07.849Z,70.43
2018-02-21T15:16:35.293Z,72.70
2018-02-21T15:19:02.767Z,78.25
2018-02-21T15:21:30.215Z,68.45
2018-02-21T15:23:57.678Z,73.00
2018-02-21T15:26:25.130Z,69.78
2018-02-21T15:28:52.592Z,71.37
2018-02-21T15:31:20.046Z,75.50
2018-02-21T15:33:47.514Z,78.10
2018-02-21T15:36:14.969Z,77.70
2018-02-21T15:38:42.478Z,77.82
2018-02-21T15:41:09.890Z,75.55
2018-02-21T15:43:37.350Z,78.40
2018-02-21T15:46:04.811Z,86.20
2018-02-21T15:48:32.261Z,88.60
2018-02-21T15:50:59.722Z,82.22
2018-02-21T15:53:27.184Z,80.60
2018-02-21T15:55:55.960Z,85.45
2018-02-21T15:58:23.423Z,93.78
2018-02-21T16:00:50.884Z,86.07
2018-02-21T16:03:18.343Z,97.50
2018-02-21T16:05:47.338Z,101.75
2018-02-21T16:08:14.790Z,98.50
2018-02-21T16:10:42.253Z,97.50
2018-02-21T16:13:10.474Z,99.93
2018-02-21T16:15:37.938Z,101.28
2018-02-21T16:18:05.408Z,103.65
2018-02-21T16:20:33.631Z,88.55
2018-02-21T16:23:01.860Z,100.75
2018-02-21T16:25:29.309Z,105.50
2018-02-21T16:27:56.781Z,120.97
2018-02-21T16:30:24.260Z,116.37
2018-02-21T16:32:51.706Z,103.22
2018-02-21T16:35:19.170Z,119.20
2018-02-21T16:37:46.622Z,114.32
2018-02-21T16:40:14.842Z,116.32
2018-02-21T16:42:42.319Z,115.00
2018-02-21T16:45:09.774Z,111.82
2018-02-21T16:47:37.220Z,121.25
2018-02-21T16:50:04.687Z,116.93
2018-02-21T16:52:32.139Z,116.65
2018-02-21T16:54:59.602Z,122.75
2018-02-21T16:57:27.064Z,115.78
2018-02-21T16:59:54.521Z,125.35
2018-02-21T17:02:22.372Z,125.62
2018-02-21T17:04:49.831Z,110.90
2018-02-21T17:07:17.278Z,107.97
2018-02-21T17:09:44.747Z,114.72
2018-02-21T17:12:12.235Z,124.70
2018-02-21T17:14:39.684Z,118.00
2018-02-21T17:17:07.144Z,116.62
2018-02-21T17:19:34.608Z,127.32
2018-02-21T17:22:02.091Z,124.65
2018-02-21T17:24:30.327Z,116.15
2018-02-21T17:26:57.791Z,128.73
2018-02-21T17:29:25.254Z,126.15
2018-02-21T17:31:52.712Z,117.57
2018-02-21T17:34:20.163Z,131.68
2018-02-21T17:36:47.672Z,128.75
2018-02-21T17:39:15.904Z,114.18
2018-02-21T17:41:43.368Z,123.82
2018-02-21T17:44:10.821Z,134.55
2018-02-21T17:46:38.302Z,127.10
2018-02-21T17:49:06.522Z,114.18
2018-02-21T17:51:33.977Z,121.00
2018-02-21T17:54:01.442Z,118.82
2018-02-21T17:56:28.904Z,112.15
2018-02-21T17:58:56.366Z,125.65
2018-02-21T18:01:23.830Z,124.22
2018-02-21T18:03:51.273Z,125.15
2018-02-21T18:06:18.738Z,123.32
2018-02-21T18:08:46.224Z,127.20
2018-02-21T18:11:13.719Z,123.82
2018-02-21T18:13:41.184Z,114.97
2018-02-21T18:16:09.036Z,121.90
2018-02-21T18:18:36.488Z,118.35
2018-02-21T18:21:03.937Z,117.37
2018-02-21T18:23:31.418Z,114.90
2018-02-21T18:25:58.909Z,125.05
2018-02-21T18:28:26.369Z,119.97
2018-02-21T18:30:53.840Z,134.30
2018-02-21T18:33:21.292Z,143.35
2018-02-21T18:35:49.521Z,126.93
2018-02-21T18:38:16.973Z,117.43
2018-02-21T18:40:44.469Z,133.35
2018-02-21T18:43:11.920Z,115.80
2018-02-21T18:45:39.381Z,118.65
2018-02-21T18:48:06.846Z,134.65
2018-02-21T18:50:34.307Z,136.57
2018-02-21T18:53:01.761Z,123.95
2018-02-21T18:55:29.219Z,114.03
2018-02-21T18:57:56.668Z,128.10
2018-02-21T19:00:24.136Z,113.37
2018-02-21T19:02:52.361Z,127.12
2018-02-21T19:05:19.814Z,113.80
2018-02-21T19:07:47.267Z,102.90
2018-02-21T19:10:14.717Z,115.18
2018-02-21T19:12:42.190Z,121.60
2018-02-21T19:15:10.787Z,123.43
2018-02-21T19:17:38.254Z,114.07
2018-02-21T19:20:05.700Z,121.10
2018-02-21T19:22:33.170Z,120.68
2018-02-21T19:25:00.626Z,119.18
2018-02-21T19:27:28.096Z,116.20
2018-02-21T19:29:55.562Z,116.07
2018-02-21T19:32:23.801Z,127.95
2018-02-21T19:34:51.257Z,118.28
2018-02-21T19:37:18.742Z,121.87
2018-02-21T19:39:46.178Z,117.37
2018-02-21T19:42:13.625Z,103.53
2018-02-21T19:44:41.076Z,107.00
2018-02-21T19:47:08.532Z,100.03
2018-02-21T19:49:35.983Z,96.78
2018-02-21T19:52:03.443Z,109.53
2018-02-21T19:54:30.910Z,97.30
2018-02-21T19:56:58.394Z,125.38
2018-02-21T19:59:25.853Z,98.95
2018-02-21T20:01:53.301Z,101.20
2018-02-21T20:04:20.803Z,103.28
2018-02-21T20:06:48.250Z,77.60
2018-02-21T20:09:16.470Z,102.82
2018-02-21T20:11:43.933Z,91.55
2018-02-21T20:14:11.385Z,101.47
2018-02-21T20:16:39.252Z,94.75
2018-02-21T20:19:06.694Z,96.47
2018-02-21T20:21:34.158Z,93.78
2018-02-21T20:24:01.626Z,95.45
2018-02-21T20:26:29.077Z,101.05
2018-02-21T20:28:56.557Z,103.35
2018-02-21T20:31:24.001Z,107.45
2018-02-21T20:33:51.484Z,98.97
2018-02-21T20:36:19.720Z,103.43
2018-02-21T20:38:47.183Z,107.53
2018-02-21T20:41:14.629Z,105.15
2018-02-21T20:43:42.858Z,99.87
2018-02-21T20:46:11.070Z,101.10
2018-02-21T20:48:38.607Z,107.37
2018-02-21T20:51:06.054Z,90.85
2018-02-21T20:53:33.518Z,97.75
2018-02-21T20:56:00.973Z,99.00
2018-02-21T20:58:28.422Z,81.05
2018-02-21T21:00:55.869Z,91.37
2018-02-21T21:03:24.104Z,86.40
2018-02-21T21:05:51.561Z,87.28
2018-02-21T21:08:19.010Z,74.30
2018-02-21T21:10:47.222Z,83.60
2018-02-21T21:13:15.449Z,86.20
2018-02-21T21:15:42.927Z,92.57
2018-02-21T21:18:10.380Z,83.97
2018-02-21T21:20:38.599Z,81.53
2018-02-21T21:23:08.728Z,81.68
2018-02-21T21:25:36.190Z,89.50
2018-02-21T21:28:03.652Z,90.90
2018-02-21T21:30:34.791Z,83.82
2018-02-21T21:33:02.262Z,87.65
2018-02-21T21:35:29.753Z,99.15
2018-02-21T21:37:57.228Z,80.12
2018-02-21T21:40:24.662Z,84.62
2018-02-21T21:42:52.212Z,76.53
2018-02-21T21:45:19.708Z,84.40
2018-02-21T21:47:47.164Z,90.90
2018-02-21T21:50:15.390Z,92.18
2018-02-21T21:52:42.897Z,79.18
2018-02-21T21:55:11.111Z,75.10
2018-02-21T21:57:38.574Z,87.97
2018-02-21T22:00:06.044Z,78.32
2018-02-21T22:02:33.490Z,81.28
2018-02-21T22:05:00.951Z,93.45
2018-02-21T22:07:28.492Z,86.00
2018-02-21T22:09:56.011Z,88.12
2018-02-21T22:12:24.020Z,83.35
2018-02-21T22:14:51.536Z,75.43
2018-02-21T22:17:21.671Z,75.82
2018-02-21T22:19:49.690Z,82.12
2018-02-21T22:22:19.348Z,75.55
2018-02-21T22:24:56.670Z,76.30
2018-02-21T22:27:24.642Z,85.22
2018-02-21T22:29:53.190Z,83.60
2018-02-21T22:32:21.946Z,70.90
2018-02-21T22:34:50.393Z,78.50
2018-02-21T22:37:18.037Z,71.30
2018-02-21T22:39:52.260Z,82.15
2018-02-21T22:42:20.646Z,77.60
2018-02-21T22:44:48.216Z,81.45
2018-02-21T22:47:18.389Z,73.07
2018-02-21T22:49:50.389Z,83.45
2018-02-21T22:52:19.967Z,88.68
2018-02-21T22:54:47.945Z,74.53
2018-02-21T22:57:16.856Z,73.93
2018-02-21T23:02:24.744Z,74.87
2018-02-21T23:04:55.158Z,76.43
2018-02-21T23:07:26.807Z,83.43
2018-02-21T23:09:55.124Z,85.90
2018-02-21T23:12:25.258Z,77.47
2018-02-21T23:14:54.285Z,74.47
2018-02-21T23:17:21.950Z,82.93
2018-02-21T23:19:53.390Z,83.28
2018-02-21T23:22:21.757Z,91.20
2018-02-21T23:24:52.778Z,85.47
2018-02-21T23:27:23.809Z,68.75
2018-02-21T23:29:52.929Z,80.95
2018-02-21T23:32:22.562Z,77.85
2018-02-21T23:34:54.293Z,80.65
2018-02-21T23:37:27.732Z,76.00
2018-02-21T23:39:56.037Z,75.28
2018-02-21T23:42:24.183Z,85.72
2018-02-21T23:44:55.104Z,71.60
2018-02-21T23:47:23.545Z,79.32
2018-02-21T23:49:56.779Z,75.12
2018-02-21T23:52:27.236Z,75.62
2018-02-21T23:54:56.442Z,72.85
2018-02-21T23:57:25.282Z,73.82
2018-02-21T23:59:54.683Z,70.15
